createdAt,value
2022-11-23T00:01:20.377Z,99749.53
2022-11-23T00:03:49.912Z,99751.38
2022-11-23T00:06:17.289Z,99750.00
2022-11-23T00:08:43.906Z,99739.59
2022-11-23T00:11:10.839Z,99738.41
2022-11-23T00:13:40.089Z,99744.31
2022-11-23T00:16:12.459Z,99750.41
2022-11-23T00:18:38.864Z,99743.47
2022-11-23T00:21:09.990Z,99749.38
2022-11-23T00:23:37.157Z,99747.34
2022-11-23T00:26:05.186Z,99755.50
2022-11-23T00:28:31.855Z,99767.72
2022-11-23T00:30:58.307Z,99769.34
2022-11-23T00:33:24.733Z,99767.94
2022-11-23T00:36:06.420Z,99763.66
2022-11-23T00:38:33.444Z,99774.88
2022-11-23T00:41:09.209Z,99770.59
2022-11-23T00:43:36.300Z,99769.56
2022-11-23T00:46:08.576Z,99773.84
2022-11-23T00:48:35.714Z,99785.06
2022-11-23T00:51:07.261Z,99777.91
2022-11-23T00:53:34.231Z,99786.47
2022-11-23T00:56:00.831Z,99785.06
2022-11-23T00:58:27.595Z,99781.41
2022-11-23T01:01:10.621Z,99795.03
2022-11-23T01:03:40.485Z,99788.94
2022-11-23T01:06:09.968Z,99789.75
2022-11-23T01:08:37.503Z,99793.41
2022-11-23T01:11:07.685Z,99796.88
2022-11-23T01:13:35.035Z,99796.88
2022-11-23T01:16:01.661Z,99801.34
2022-11-23T01:18:28.552Z,99809.09
2022-11-23T01:20:55.655Z,99811.75
2022-11-23T01:23:22.123Z,99815.00
2022-11-23T01:25:51.914Z,99813.38
2022-11-23T01:28:20.995Z,99804.81
2022-11-23T01:30:47.486Z,99812.53
2022-11-23T01:33:13.923Z,99815.81
2022-11-23T01:35:40.367Z,99822.94
2022-11-23T01:38:06.855Z,99821.94
2022-11-23T01:40:41.993Z,99816.25
2022-11-23T01:43:15.312Z,99812.97
2022-11-23T01:45:57.453Z,99818.25
2022-11-23T01:48:27.081Z,99815.00
2022-11-23T01:50:54.316Z,99816.63
2022-11-23T01:53:20.931Z,99818.03
2022-11-23T01:55:49.048Z,99822.31
2022-11-23T01:58:20.836Z,99821.47
2022-11-23T02:00:48.148Z,99822.09
2022-11-23T02:03:15.041Z,99824.97
2022-11-23T02:05:48.596Z,99824.97
2022-11-23T02:08:20.092Z,99832.91
2022-11-23T02:10:47.573Z,99836.75
2022-11-23T02:13:14.956Z,99830.03
2022-11-23T02:15:41.511Z,99834.50
2022-11-23T02:18:15.600Z,99837.34
2022-11-23T02:20:43.990Z,99831.63
2022-11-23T02:23:55.051Z,99843.22
2022-11-23T02:26:23.340Z,99846.06
2022-11-23T02:28:55.071Z,99854.81
2022-11-23T02:31:21.565Z,99836.69
2022-11-23T02:33:48.074Z,99841.78
2022-11-23T02:36:46.650Z,99848.28
2022-11-23T02:39:36.917Z,99847.47
2022-11-23T02:42:04.870Z,99840.09
2022-11-23T02:45:05.139Z,99853.16
2022-11-23T02:47:31.592Z,99842.56
2022-11-23T02:49:58.252Z,99854.16
2022-11-23T02:52:24.957Z,99856.81
2022-11-23T02:54:51.436Z,99862.91
2022-11-23T02:57:17.918Z,99852.53
2022-11-23T02:59:44.369Z,99859.25
2022-11-23T03:02:10.947Z,99857.81
2022-11-23T03:04:37.445Z,99867.16
2022-11-23T03:07:04.067Z,99858.63
2022-11-23T03:09:31.044Z,99858.22
2022-11-23T03:11:57.712Z,99863.09
2022-11-23T03:14:24.404Z,99863.72
2022-11-23T03:16:50.846Z,99863.72
2022-11-23T03:19:17.401Z,99852.66
2022-11-23T03:21:43.874Z,99863.25
2022-11-23T03:24:10.315Z,99865.75
2022-11-23T03:26:36.741Z,99865.91
2022-11-23T03:29:03.428Z,99863.47
2022-11-23T03:31:29.869Z,99870.78
2022-11-23T03:33:56.375Z,99863.00
2022-11-23T03:36:22.852Z,99868.31
2022-11-23T03:38:49.287Z,99864.84
2022-11-23T03:41:15.908Z,99866.66
2022-11-23T03:43:42.357Z,99869.13
2022-11-23T03:46:08.808Z,99864.03
2022-11-23T03:48:35.256Z,99865.88
2022-11-23T03:51:01.717Z,99872.78
2022-11-23T03:53:28.184Z,99869.94
2022-11-23T03:55:57.484Z,99863.22
2022-11-23T03:58:24.231Z,99872.78
2022-11-23T04:00:50.708Z,99877.06
2022-11-23T04:03:17.542Z,99864.47
2022-11-23T04:05:44.040Z,99868.50
2022-11-23T04:08:10.574Z,99864.47
2022-11-23T04:10:37.066Z,99861.22
2022-11-23T04:13:03.569Z,99867.75
2022-11-23T04:15:30.029Z,99866.91
2022-11-23T04:17:56.496Z,99861.81
2022-11-23T04:20:23.019Z,99860.19
2022-11-23T04:22:49.446Z,99870.56
2022-11-23T04:25:15.914Z,99862.44
2022-11-23T04:27:42.401Z,99857.16
2022-11-23T04:30:09.776Z,99855.31
2022-11-23T04:32:36.192Z,99861.25
2022-11-23T04:35:02.739Z,99863.25
2022-11-23T04:37:29.301Z,99863.25
2022-11-23T04:39:55.775Z,99869.38
2022-11-23T04:42:22.213Z,99862.44
2022-11-23T04:44:48.682Z,99857.16
2022-11-23T04:47:15.225Z,99860.81
2022-11-23T04:49:41.644Z,99861.63
2022-11-23T04:52:08.141Z,99867.91
2022-11-23T04:54:34.693Z,99859.81
2022-11-23T04:57:01.200Z,99868.75
2022-11-23T04:59:27.757Z,99871.41
2022-11-23T05:01:54.216Z,99866.09
2022-11-23T05:04:20.633Z,99859.19
2022-11-23T05:06:47.217Z,99857.72
2022-11-23T05:09:13.947Z,99871.53
2022-11-23T05:11:40.482Z,99863.00
2022-11-23T05:14:07.047Z,99856.00
2022-11-23T05:16:33.656Z,99846.03
2022-11-23T05:19:00.075Z,99848.44
2022-11-23T05:21:26.576Z,99854.09
2022-11-23T05:23:53.123Z,99854.72
2022-11-23T05:26:19.685Z,99864.28
2022-11-23T05:28:46.161Z,99864.09
2022-11-23T05:31:12.699Z,99862.66
2022-11-23T05:33:39.212Z,99867.56
2022-11-23T05:36:06.115Z,99868.19
2022-11-23T05:38:32.591Z,99872.88
2022-11-23T05:40:59.024Z,99868.44
2022-11-23T05:43:25.515Z,99876.97
2022-11-23T05:45:51.951Z,99875.97
2022-11-23T05:48:18.661Z,99873.75
2022-11-23T05:50:45.088Z,99876.22
2022-11-23T05:53:11.628Z,99879.66
2022-11-23T05:55:38.058Z,99889.03
2022-11-23T05:58:04.506Z,99888.66
2022-11-23T06:00:31.012Z,99883.53
2022-11-23T06:03:04.104Z,99892.94
2022-11-23T06:05:31.152Z,99882.75
2022-11-23T06:07:57.644Z,99887.66
2022-11-23T06:10:24.205Z,99878.72
2022-11-23T06:12:51.685Z,99887.25
2022-11-23T06:15:18.444Z,99885.63
2022-11-23T06:17:44.960Z,99881.34
2022-11-23T06:20:11.625Z,99883.59
2022-11-23T06:22:38.120Z,99883.59
2022-11-23T06:25:04.770Z,99877.47
2022-11-23T06:27:31.318Z,99882.78
2022-11-23T06:29:57.747Z,99882.97
2022-11-23T06:32:24.188Z,99880.50
2022-11-23T06:34:50.812Z,99882.16
2022-11-23T06:37:17.250Z,99880.72
2022-11-23T06:39:43.808Z,99888.66
2022-11-23T06:42:37.296Z,99883.75
2022-11-23T06:44:56.640Z,99883.13
2022-11-23T06:47:26.343Z,99885.56
2022-11-23T06:49:53.252Z,99886.78
2022-11-23T06:52:19.823Z,99888.81
2022-11-23T06:54:46.516Z,99894.09
2022-11-23T06:57:13.145Z,99889.19
2022-11-23T06:59:44.520Z,99890.75
2022-11-23T07:02:12.422Z,99903.34
2022-11-23T07:04:38.927Z,99913.31
2022-11-23T07:07:07.101Z,99908.59
2022-11-23T07:09:33.838Z,99907.78
2022-11-23T07:12:00.497Z,99917.56
2022-11-23T07:14:26.979Z,99914.66
2022-11-23T07:16:53.395Z,99910.56
2022-11-23T07:19:19.814Z,99921.09
2022-11-23T07:21:46.389Z,99923.69
2022-11-23T07:24:12.879Z,99924.63
2022-11-23T07:26:39.360Z,99932.28
2022-11-23T07:29:05.767Z,99923.31
2022-11-23T07:31:32.968Z,99932.78
2022-11-23T07:33:59.414Z,99934.81
2022-11-23T07:36:25.879Z,99936.66
2022-11-23T07:38:52.321Z,99940.72
2022-11-23T07:41:18.728Z,99944.00
2022-11-23T07:43:45.209Z,99947.25
2022-11-23T07:46:11.669Z,99952.16
2022-11-23T07:48:38.176Z,99959.34
2022-11-23T07:51:04.762Z,99961.59
2022-11-23T07:53:31.240Z,99959.59
2022-11-23T07:55:58.700Z,99962.88
2022-11-23T07:58:25.649Z,99959.69
2022-11-23T08:00:52.386Z,99968.66
2022-11-23T08:03:27.915Z,99969.47
2022-11-23T08:05:55.309Z,99981.13
2022-11-23T08:08:21.884Z,99981.75
2022-11-23T08:10:52.995Z,99979.53
2022-11-23T08:13:21.609Z,99978.97
2022-11-23T08:15:53.974Z,99973.69
2022-11-23T08:18:21.897Z,99979.41
2022-11-23T08:20:48.469Z,99977.22
2022-11-23T08:23:14.978Z,99980.47
2022-11-23T08:25:41.641Z,99985.00
2022-11-23T08:28:08.168Z,99983.78
2022-11-23T08:30:35.472Z,99981.22
2022-11-23T08:33:09.161Z,99985.91
2022-11-23T08:35:37.141Z,99983.75
2022-11-23T08:38:04.405Z,99993.75
2022-11-23T08:40:31.721Z,99987.06
2022-11-23T08:42:58.245Z,99982.22
2022-11-23T08:45:25.170Z,99980.19
2022-11-23T08:47:52.975Z,99972.28
2022-11-23T08:50:20.303Z,99975.97
2022-11-23T08:52:47.070Z,99976.00
2022-11-23T08:55:14.063Z,99970.97
2022-11-23T08:57:42.026Z,99980.31
2022-11-23T09:00:09.152Z,99978.69
2022-11-23T09:02:35.554Z,99979.94
2022-11-23T09:05:02.162Z,99980.78
2022-11-23T09:07:28.696Z,99978.75
2022-11-23T09:09:55.209Z,99975.50
2022-11-23T09:12:21.694Z,99968.56
2022-11-23T09:14:48.118Z,99966.75
2022-11-23T09:17:14.533Z,99975.31
2022-11-23T09:19:40.977Z,99961.06
2022-11-23T09:22:07.489Z,99967.78
2022-11-23T09:24:34.407Z,99959.28
2022-11-23T09:27:01.069Z,99957.09
2022-11-23T09:29:28.393Z,99959.97
2022-11-23T09:31:54.933Z,99958.34
2022-11-23T09:34:21.493Z,99959.59
2022-11-23T09:36:47.956Z,99956.13
2022-11-23T09:39:14.622Z,99948.03
2022-11-23T09:42:17.317Z,99948.88
2022-11-23T09:45:02.883Z,99948.09
2022-11-23T09:47:51.574Z,99937.94
2022-11-23T09:50:27.088Z,99939.97
2022-11-23T09:52:53.651Z,99938.31
2022-11-23T09:55:42.887Z,99938.50
2022-11-23T09:58:39.601Z,99937.53
2022-11-23T10:01:14.262Z,99927.09
2022-11-23T10:03:47.162Z,99922.22
2022-11-23T10:06:29.988Z,99920.00
2022-11-23T10:09:47.774Z,99907.34
2022-11-23T10:12:39.899Z,99900.63
2022-11-23T10:15:14.122Z,99904.53
2022-11-23T10:18:09.960Z,99900.84
2022-11-23T10:20:59.553Z,99892.28
2022-11-23T10:23:52.150Z,99892.69
2022-11-23T10:26:21.213Z,99898.59
2022-11-23T10:28:49.498Z,99889.25
2022-11-23T10:31:20.636Z,99899.44
2022-11-23T10:33:55.887Z,99888.84
2022-11-23T10:36:22.479Z,99891.06
2022-11-23T10:38:53.658Z,99891.88
2022-11-23T10:41:20.110Z,99904.13
2022-11-23T10:43:57.181Z,99902.09
2022-11-23T10:46:31.728Z,99903.72
2022-11-23T10:49:16.892Z,99905.75
2022-11-23T10:51:55.352Z,99903.31
2022-11-23T10:54:44.943Z,99890.66
2022-11-23T10:57:31.511Z,99900.03
2022-11-23T11:00:14.819Z,99905.34
2022-11-23T11:02:49.257Z,99885.34
2022-11-23T11:06:07.014Z,99887.41
2022-11-23T11:08:20.950Z,99893.31
2022-11-23T11:10:50.364Z,99885.97
2022-11-23T11:13:33.005Z,99895.34
2022-11-23T11:16:05.248Z,99893.91
2022-11-23T11:18:36.797Z,99902.88
2022-11-23T11:21:17.118Z,99898.19
2022-11-23T11:23:51.630Z,99892.69
2022-11-23T11:26:25.731Z,99899.22
2022-11-23T11:28:54.889Z,99887.81
2022-11-23T11:31:27.159Z,99891.88
2022-11-23T11:34:31.624Z,99894.53
2022-11-23T11:37:30.675Z,99882.28
2022-11-23T11:40:07.537Z,99879.66
2022-11-23T11:42:40.880Z,99878.63
2022-11-23T11:45:21.904Z,99875.97
2022-11-23T11:48:23.314Z,99871.91
2022-11-23T11:50:55.405Z,99854.38
2022-11-23T11:53:57.114Z,99848.66
2022-11-23T11:56:32.303Z,99839.25
2022-11-23T11:59:12.945Z,99846.41
2022-11-23T12:01:54.196Z,99843.91
2022-11-23T12:04:31.745Z,99835.94
2022-11-23T12:07:09.571Z,99833.72
2022-11-23T12:09:40.942Z,99815.94
2022-11-23T12:12:16.059Z,99823.50
2022-11-23T12:14:43.384Z,99809.44
2022-11-23T12:17:37.117Z,99813.31
2022-11-23T12:20:39.314Z,99824.72
2022-11-23T12:23:32.614Z,99820.41
2022-11-23T12:26:17.827Z,99811.19
2022-11-23T12:29:07.487Z,99802.19
2022-11-23T12:32:02.434Z,99796.47
2022-11-23T12:34:58.251Z,99793.13
2022-11-23T12:37:46.734Z,99804.31
2022-11-23T12:40:31.393Z,99794.09
2022-11-23T12:43:06.139Z,99798.03
2022-11-23T12:46:01.501Z,99796.41
2022-11-23T12:49:02.944Z,99796.81
2022-11-23T12:51:40.854Z,99792.13
2022-11-23T12:54:10.028Z,99790.72
2022-11-23T12:57:00.328Z,99789.72
2022-11-23T12:59:39.761Z,99797.13
2022-11-23T13:02:23.835Z,99786.50
2022-11-23T13:05:17.721Z,99792.81
2022-11-23T13:08:22.874Z,99779.38
2022-11-23T13:10:58.313Z,99781.63
2022-11-23T13:13:43.843Z,99780.41
2022-11-23T13:16:48.036Z,99782.06
2022-11-23T13:19:40.623Z,99769.66
2022-11-23T13:22:14.452Z,99767.81
2022-11-23T13:25:00.928Z,99771.91
2022-11-23T13:27:31.434Z,99777.22
2022-11-23T13:30:01.023Z,99776.00
2022-11-23T13:32:42.325Z,99776.19
2022-11-23T13:35:17.662Z,99778.25
2022-11-23T13:37:56.291Z,99793.13
2022-11-23T13:40:28.682Z,99807.81
2022-11-23T13:43:06.497Z,99811.09
2022-11-23T13:45:36.581Z,99818.84
2022-11-23T13:48:04.770Z,99824.78
2022-11-23T13:50:32.477Z,99823.53
2022-11-23T13:53:00.409Z,99823.34
2022-11-23T13:55:37.551Z,99840.91
2022-11-23T13:58:22.948Z,99845.00
2022-11-23T14:00:49.712Z,99836.22
2022-11-23T14:03:51.031Z,99843.34
2022-11-23T14:06:47.903Z,99834.16
2022-11-23T14:09:20.134Z,99832.50
2022-11-23T14:12:11.476Z,99837.38
2022-11-23T14:14:43.697Z,99842.44
2022-11-23T14:17:34.947Z,99833.50
2022-11-23T14:20:19.467Z,99832.25
2022-11-23T14:23:27.585Z,99845.69
2022-11-23T14:26:02.919Z,99847.31
2022-11-23T14:28:53.904Z,99856.22
2022-11-23T14:31:46.374Z,99860.88
2022-11-23T14:34:31.848Z,99864.72
2022-11-23T14:37:17.492Z,99866.34
2022-11-23T14:40:13.516Z,99881.78
2022-11-23T14:42:44.404Z,99880.53
2022-11-23T14:45:15.422Z,99886.66
2022-11-23T14:47:42.159Z,99881.16
2022-11-23T14:50:41.034Z,99877.09
2022-11-23T14:53:11.014Z,99883.00
2022-11-23T14:55:37.618Z,99880.31
2022-11-23T14:58:06.185Z,99882.34
2022-11-23T15:00:41.446Z,99879.28
2022-11-23T15:03:48.951Z,99886.00
2022-11-23T15:06:17.254Z,99891.06
2022-11-23T15:09:13.062Z,99891.44
2022-11-23T15:11:39.570Z,99884.53
2022-11-23T15:14:26.697Z,99886.94
2022-11-23T15:16:53.262Z,99896.72
2022-11-23T15:19:28.159Z,99895.06
2022-11-23T15:21:56.604Z,99903.19
2022-11-23T15:24:25.438Z,99895.66
2022-11-23T15:26:52.934Z,99904.75
2022-11-23T15:29:33.468Z,99904.59
2022-11-23T15:32:28.625Z,99909.88
2022-11-23T15:34:47.859Z,99911.50
2022-11-23T15:37:14.859Z,99913.34
2022-11-23T15:39:41.860Z,99906.22
2022-11-23T15:42:15.574Z,99902.13
2022-11-23T15:44:44.971Z,99905.56
2022-11-23T15:47:28.019Z,99902.91
2022-11-23T15:50:08.431Z,99902.28
2022-11-23T15:52:37.633Z,99909.19
2022-11-23T15:55:13.082Z,99922.84
2022-11-23T15:57:40.557Z,99919.56
2022-11-23T16:00:12.535Z,99921.41
2022-11-23T16:02:39.314Z,99928.75
2022-11-23T16:05:19.579Z,99934.88
2022-11-23T16:08:02.302Z,99927.94
2022-11-23T16:10:30.833Z,99923.66
2022-11-23T16:13:02.734Z,99926.50
2022-11-23T16:15:40.733Z,99925.84
2022-11-23T16:18:28.036Z,99947.47
2022-11-23T16:20:58.837Z,99952.75
2022-11-23T16:23:31.032Z,99944.00
2022-11-23T16:26:01.210Z,99955.16
2022-11-23T16:28:32.121Z,99954.78
2022-11-23T16:30:59.506Z,99971.44
2022-11-23T16:33:26.617Z,99962.88
2022-11-23T16:35:53.363Z,99962.88
2022-11-23T16:38:20.281Z,99964.53
2022-11-23T16:40:48.245Z,99968.00
2022-11-23T16:43:16.477Z,99977.19
2022-11-23T16:45:46.796Z,99973.91
2022-11-23T16:48:25.352Z,99972.28
2022-11-23T16:50:56.008Z,99981.22
2022-11-23T16:53:22.945Z,99991.41
2022-11-23T16:55:53.612Z,99989.78
2022-11-23T16:58:20.601Z,99996.50
2022-11-23T17:00:49.386Z,99999.34
2022-11-23T17:03:17.004Z,100001.00
2022-11-23T17:05:43.762Z,100007.91
2022-11-23T17:08:10.458Z,99993.84
2022-11-23T17:10:38.256Z,99988.41
2022-11-23T17:13:11.414Z,99988.22
2022-11-23T17:15:38.114Z,99999.63
2022-11-23T17:18:04.740Z,100011.00
2022-11-23T17:20:31.251Z,100007.56
2022-11-23T17:23:01.028Z,100011.00
2022-11-23T17:25:27.686Z,100006.91
2022-11-23T17:27:54.148Z,100009.19
2022-11-23T17:30:22.184Z,100013.28
2022-11-23T17:32:49.538Z,100024.47
2022-11-23T17:35:16.887Z,100027.34
2022-11-23T17:37:44.067Z,100042.38
2022-11-23T17:40:16.068Z,100046.03
2022-11-23T17:42:43.191Z,100040.34
2022-11-23T17:45:10.953Z,100049.13
2022-11-23T17:47:38.412Z,100050.94
2022-11-23T17:50:09.444Z,100053.59
2022-11-23T17:52:35.911Z,100053.78
2022-11-23T17:55:02.362Z,100053.78
2022-11-23T17:57:28.801Z,100057.63
2022-11-23T17:59:58.218Z,100056.81
2022-11-23T18:02:27.176Z,100061.28
2022-11-23T18:04:53.622Z,100069.22
2022-11-23T18:07:20.150Z,100072.06
2022-11-23T18:09:46.670Z,100078.16
2022-11-23T18:12:13.568Z,100079.16
2022-11-23T18:14:40.055Z,100084.28
2022-11-23T18:17:06.514Z,100082.63
2022-11-23T18:19:33.246Z,100079.16
2022-11-23T18:21:59.876Z,100097.28
2022-11-23T18:24:26.357Z,100098.50
2022-11-23T18:26:52.933Z,100092.56
2022-11-23T18:29:19.436Z,100098.22
2022-11-23T18:31:45.888Z,100097.34
2022-11-23T18:34:12.392Z,100105.06
2022-11-23T18:36:38.824Z,100100.34
2022-11-23T18:39:06.347Z,100102.75
2022-11-23T18:41:32.857Z,100113.69
2022-11-23T18:43:59.300Z,100115.69
2022-11-23T18:46:25.869Z,100122.38
2022-11-23T18:48:53.488Z,100127.03
2022-11-23T18:51:19.952Z,100126.56
2022-11-23T18:53:47.798Z,100133.84
2022-11-23T18:56:14.588Z,100131.78
2022-11-23T18:58:43.125Z,100132.53
2022-11-23T19:01:20.586Z,100135.34
2022-11-23T19:03:49.415Z,100139.19
2022-11-23T19:06:18.357Z,100141.00
2022-11-23T19:08:47.298Z,100136.28
2022-11-23T19:11:19.997Z,100140.28
2022-11-23T19:13:54.183Z,100146.94
2022-11-23T19:16:23.390Z,100151.44
2022-11-23T19:18:55.116Z,100162.16
2022-11-23T19:21:23.373Z,100168.00
2022-11-23T19:23:52.026Z,100184.03
2022-11-23T19:26:19.468Z,100178.31
2022-11-23T19:28:46.604Z,100184.59
2022-11-23T19:31:15.851Z,100182.13
2022-11-23T19:33:43.640Z,100186.22
2022-11-23T19:36:13.037Z,100189.41
2022-11-23T19:38:39.578Z,100201.59
2022-11-23T19:41:06.395Z,100194.88
2022-11-23T19:43:33.267Z,100190.59
2022-11-23T19:46:01.974Z,100201.97
2022-11-23T19:48:33.170Z,100221.47
2022-11-23T19:51:05.560Z,100213.91
2022-11-23T19:53:36.737Z,100213.91
2022-11-23T19:56:09.657Z,100207.34
2022-11-23T19:58:36.469Z,100206.69
2022-11-23T20:01:05.995Z,100221.09
2022-11-23T20:03:36.641Z,100218.97
2022-11-23T20:06:06.006Z,100214.88
2022-11-23T20:08:32.493Z,100232.53
2022-11-23T20:10:59.008Z,100219.34
2022-11-23T20:13:25.469Z,100235.66
2022-11-23T20:15:51.964Z,100232.81
2022-11-23T20:18:19.090Z,100232.38
2022-11-23T20:20:47.470Z,100228.91
2022-11-23T20:23:14.855Z,100232.72
2022-11-23T20:25:42.193Z,100236.53
2022-11-23T20:28:13.540Z,100231.44
2022-11-23T20:30:42.480Z,100235.25
2022-11-23T20:33:10.261Z,100235.81
2022-11-23T20:35:36.821Z,100234.31
2022-11-23T20:38:03.830Z,100238.31
2022-11-23T20:40:30.614Z,100251.50
2022-11-23T20:42:57.989Z,100248.59
2022-11-23T20:45:28.307Z,100256.84
2022-11-23T20:47:55.262Z,100250.28
2022-11-23T20:50:26.800Z,100255.91
2022-11-23T20:52:54.895Z,100258.75
2022-11-23T20:55:24.673Z,100265.84
2022-11-23T20:57:52.343Z,100273.75
2022-11-23T21:00:21.395Z,100275.75
2022-11-23T21:02:52.225Z,100279.88
2022-11-23T21:05:19.819Z,100287.13
2022-11-23T21:07:47.577Z,100284.31
2022-11-23T21:10:34.944Z,100289.88
2022-11-23T21:13:20.719Z,100290.00
2022-11-23T21:15:47.281Z,100285.72
2022-11-23T21:18:14.502Z,100292.75
2022-11-23T21:20:43.251Z,100294.69
2022-11-23T21:23:09.768Z,100301.63
2022-11-23T21:25:36.278Z,100298.97
2022-11-23T21:28:03.382Z,100298.31
2022-11-23T21:30:30.882Z,100304.59
2022-11-23T21:32:57.536Z,100301.31
2022-11-23T21:35:24.089Z,100315.88
2022-11-23T21:37:50.503Z,100311.44
2022-11-23T21:40:16.999Z,100314.78
2022-11-23T21:42:44.709Z,100322.69
2022-11-23T21:45:11.323Z,100318.88
2022-11-23T21:47:37.828Z,100324.16
2022-11-23T21:50:04.788Z,100324.78
2022-11-23T21:52:31.306Z,100328.06
2022-11-23T21:54:57.857Z,100335.47
2022-11-23T21:57:24.423Z,100343.50
2022-11-23T21:59:50.971Z,100342.16
2022-11-23T22:02:17.511Z,100342.16
2022-11-23T22:04:43.971Z,100345.44
2022-11-23T22:07:10.437Z,100350.03
2022-11-23T22:09:37.961Z,100358.06
2022-11-23T22:12:04.616Z,100353.44
2022-11-23T22:14:31.381Z,100360.38
2022-11-23T22:16:58.240Z,100369.09
2022-11-23T22:19:24.675Z,100367.66
2022-11-23T22:21:51.130Z,100377.66
2022-11-23T22:24:19.361Z,100362.81
2022-11-23T22:26:47.555Z,100376.66
2022-11-23T22:29:14.876Z,100371.56
2022-11-23T22:31:41.632Z,100382.78
2022-11-23T22:34:11.282Z,100381.94
2022-11-23T22:36:37.926Z,100386.25
2022-11-23T22:39:06.489Z,100384.25
2022-11-23T22:41:36.685Z,100395.81
2022-11-23T22:44:06.057Z,100397.00
2022-11-23T22:46:32.700Z,100402.94
2022-11-23T22:48:59.464Z,100406.66
2022-11-23T22:51:28.592Z,100413.59
2022-11-23T22:53:59.691Z,100420.53
2022-11-23T22:56:27.389Z,100411.88
2022-11-23T22:58:53.889Z,100408.09
2022-11-23T23:01:23.270Z,100411.81
2022-11-23T23:03:58.051Z,100412.75
2022-11-23T23:06:27.240Z,100423.97
2022-11-23T23:08:58.641Z,100421.28
2022-11-23T23:11:27.056Z,100427.50
2022-11-23T23:13:54.116Z,100425.19
2022-11-23T23:16:20.801Z,100428.28
2022-11-23T23:18:47.362Z,100423.38
2022-11-23T23:21:19.165Z,100439.88
2022-11-23T23:23:50.814Z,100442.72
2022-11-23T23:26:19.251Z,100455.09
2022-11-23T23:28:46.440Z,100454.28
2022-11-23T23:31:16.110Z,100448.69
2022-11-23T23:33:43.412Z,100456.63
2022-11-23T23:36:15.825Z,100465.38
2022-11-23T23:38:42.966Z,100461.91
2022-11-23T23:41:10.629Z,100468.66
2022-11-23T23:43:37.324Z,100457.09
2022-11-23T23:46:09.155Z,100461.06
2022-11-23T23:48:37.923Z,100464.22
2022-11-23T23:51:06.203Z,100465.22
2022-11-23T23:53:34.334Z,100461.72
2022-11-23T23:56:03.937Z,100455.28
2022-11-23T23:58:31.248Z,100440.41
